METAR de aeropuertos de Murcia y cercanos

 

LEMI - Murcia/Corvera
Actualización: 22/02/2020 07:30
Despejado
Despejado
 Viento del ONO
Viento: ONO 6 km/h
Temperatura: 5°C
Rocío: 4°C
Humedad: 93%
Barómetro: 1031 hPa
Resumen: Despejado
Visibilidad: greater than 10 km
2020/02/22 06:30 LEMI 220630Z 30003KT CAVOK 05/04 Q1031
LERI - Murcia/Alcantarilla
Actualización: 22/02/2020 07:00
Despejado
Despejado
 Viento del SO
Viento: SO 6 km/h
Temperatura: 1°C
Rocío: 1°C
Humedad: 100%
Barómetro: 1031 hPa
Resumen: Despejado
Visibilidad: greater than 10 km
2020/02/22 06:00 LERI 220600Z 23003KT CAVOK 01/01 Q1031 NOSIG
LELC - Murcia/San Javier
Actualización: 22/02/2020 07:30
Despejado
Despejado
 Viento del OSO
Viento: OSO 6 km/h
Temperatura: 5°C
Rocío: 5°C
Humedad: 100%
Barómetro: 1031 hPa
Resumen: Despejado
Visibilidad: greater than 10 km
2020/02/22 06:30 LELC 220630Z 24003KT CAVOK 05/05 Q1031 NOSIG
 
LEAL - Alicante
Actualización: 22/02/2020 07:30
Despejado
Despejado
 Viento del varies
Viento: varies 4 km/h
Temperatura: 5°C
Rocío: 4°C
Humedad: 93%
Barómetro: 1031 hPa
Resumen: Despejado
Visibilidad: greater than 10 km
2020/02/22 06:30 LEAL 220630Z VRB02KT CAVOK 05/04 Q1031 NOSIG
LEAB - Albacete
Actualización: 22/02/2020 07:00
Despejado
Despejado
 Viento del calm
Viento: Calma
Temperatura: -2°C
Rocío: -2°C
Humedad: 100%
Barómetro: 1031 hPa
Resumen: Despejado
Visibilidad: greater than 10 km
2020/02/22 06:00 LEAB 220600Z 00000KT CAVOK M02/M02 Q1031 NOSIG
LEAM - Almería
Actualización: 22/02/2020 07:30
Despejado
Despejado
 Viento del NNO
Viento: NNO 13 km/h
Temperatura: 8°C
Wind Chill: 6°C
Rocío: 6°C
Humedad: 87%
Barómetro: 1031 hPa
Resumen: Despejado
Visibilidad: greater than 10 km
2020/02/22 06:30 LEAM 220630Z 34007KT CAVOK 08/06 Q1031

La estación de MeteoMurcia.com, publica sus datos en los siguientes proyectos:

Weather Underground PWS IMURCIAP2 Meteoclimatic www.awekas.at

W3Counter
Web Analytics